sensor_id;sensor_type;location;lat;lon;timestamp;pressure;altitude;pressure_sealevel;temperature;humidity
6433;BME280;3249;42.690;23.260;2022-08-19T00:00:08;94238.22;;;20.66;100.00
6433;BME280;3249;42.690;23.260;2022-08-19T00:02:35;94238.59;;;20.55;100.00
6433;BME280;3249;42.690;23.260;2022-08-19T00:05:01;94242.59;;;20.47;100.00
6433;BME280;3249;42.690;23.260;2022-08-19T00:07:26;94246.50;;;20.50;100.00
6433;BME280;3249;42.690;23.260;2022-08-19T00:09:52;94235.56;;;20.43;100.00
6433;BME280;3249;42.690;23.260;2022-08-19T00:12:17;94242.63;;;20.42;100.00
6433;BME280;3249;42.690;23.260;2022-08-19T00:14:43;94246.78;;;20.20;100.00
6433;BME280;3249;42.690;23.260;2022-08-19T00:17:08;94252.31;;;20.13;100.00
6433;BME280;3249;42.690;23.260;2022-08-19T00:19:35;94258.44;;;20.32;100.00
6433;BME280;3249;42.690;23.260;2022-08-19T00:22:01;94258.09;;;20.39;100.00
6433;BME280;3249;42.690;23.260;2022-08-19T00:24:28;94260.75;;;20.62;100.00
6433;BME280;3249;42.690;23.260;2022-08-19T00:26:54;94264.66;;;20.65;100.00
6433;BME280;3249;42.690;23.260;2022-08-19T03:35:44;94246.66;;;18.66;100.00
6433;BME280;3249;42.690;23.260;2022-08-19T03:38:10;94249.28;;;18.66;100.00
6433;BME280;3249;42.690;23.260;2022-08-19T03:40:38;94253.94;;;18.69;100.00
6433;BME280;3249;42.690;23.260;2022-08-19T03:43:04;94252.34;;;18.83;100.00
6433;BME280;3249;42.690;23.260;2022-08-19T03:45:30;94248.75;;;18.59;100.00
6433;BME280;3249;42.690;23.260;2022-08-19T03:47:55;94272.22;;;18.59;100.00
6433;BME280;3249;42.690;23.260;2022-08-19T03:50:21;94263.63;;;18.58;100.00
6433;BME280;3249;42.690;23.260;2022-08-19T03:52:50;94269.53;;;18.84;100.00
6433;BME280;3249;42.690;23.260;2022-08-19T03:55:17;94268.69;;;18.98;100.00
6433;BME280;3249;42.690;23.260;2022-08-19T03:57:42;94275.16;;;19.11;100.00
6433;BME280;3249;42.690;23.260;2022-08-19T04:00:09;94274.84;;;19.32;100.00
6433;BME280;3249;42.690;23.260;2022-08-19T04:02:36;94278.47;;;19.36;100.00
6433;BME280;3249;42.690;23.260;2022-08-19T04:05:01;94279.78;;;19.29;100.00
6433;BME280;3249;42.690;23.260;2022-08-19T04:07:26;94285.72;;;19.44;100.00
6433;BME280;3249;42.690;23.260;2022-08-19T04:09:52;94272.88;;;19.53;100.00
6433;BME280;3249;42.690;23.260;2022-08-19T04:12:18;94273.47;;;19.40;100.00
6433;BME280;3249;42.690;23.260;2022-08-19T04:14:46;94287.63;;;19.34;100.00
6433;BME280;3249;42.690;23.260;2022-08-19T04:17:11;94282.09;;;19.40;100.00
6433;BME280;3249;42.690;23.260;2022-08-19T04:19:39;94287.25;;;19.55;100.00
6433;BME280;3249;42.690;23.260;2022-08-19T04:22:05;94283.34;;;19.48;100.00
6433;BME280;3249;42.690;23.260;2022-08-19T04:24:33;94288.88;;;19.80;100.00
6433;BME280;3249;42.690;23.260;2022-08-19T04:27:00;94288.28;;;19.93;100.00
6433;BME280;3249;42.690;23.260;2022-08-19T04:29:26;94294.06;;;19.85;100.00
6433;BME280;3249;42.690;23.260;2022-08-19T04:31:54;94286.09;;;20.05;100.00
6433;BME280;3249;42.690;23.260;2022-08-19T04:34:21;94297.09;;;20.02;100.00
6433;BME280;3249;42.690;23.260;2022-08-19T04:36:51;94293.56;;;19.83;100.00
6433;BME280;3249;42.690;23.260;2022-08-19T04:39:21;94296.19;;;19.83;100.00
6433;BME280;3249;42.690;23.260;2022-08-19T04:41:47;94300.19;;;20.09;100.00
6433;BME280;3249;42.690;23.260;2022-08-19T04:44:35;94302.69;;;20.24;100.00
6433;BME280;3249;42.690;23.260;2022-08-19T04:47:01;94292.63;;;20.36;100.00
6433;BME280;3249;42.690;23.260;2022-08-19T04:49:30;94299.56;;;20.22;100.00
6433;BME280;3249;42.690;23.260;2022-08-19T04:51:56;94293.16;;;20.38;100.00
6433;BME280;3249;42.690;23.260;2022-08-19T04:54:24;94304.44;;;20.62;100.00
6433;BME280;3249;42.690;23.260;2022-08-19T04:56:51;94296.31;;;20.63;100.00
6433;BME280;3249;42.690;23.260;2022-08-19T04:59:18;94302.38;;;20.59;100.00
6433;BME280;3249;42.690;23.260;2022-08-19T05:01:45;94310.06;;;20.74;100.00
6433;BME280;3249;42.690;23.260;2022-08-19T05:04:15;94310.94;;;20.93;100.00
6433;BME280;3249;42.690;23.260;2022-08-19T05:06:42;94309.00;;;21.03;100.00
6433;BME280;3249;42.690;23.260;2022-08-19T05:09:08;94312.09;;;21.29;100.00
6433;BME280;3249;42.690;23.260;2022-08-19T05:11:35;94312.19;;;21.42;100.00
6433;BME280;3249;42.690;23.260;2022-08-19T05:14:05;94310.53;;;21.28;100.00
6433;BME280;3249;42.690;23.260;2022-08-19T05:16:30;94314.66;;;21.34;100.00
6433;BME280;3249;42.690;23.260;2022-08-19T05:18:56;94313.31;;;21.36;100.00
6433;BME280;3249;42.690;23.260;2022-08-19T05:21:41;94317.19;;;21.39;100.00
6433;BME280;3249;42.690;23.260;2022-08-19T05:24:25;94309.69;;;21.32;100.00
6433;BME280;3249;42.690;23.260;2022-08-19T05:26:52;94315.53;;;21.24;100.00
6433;BME280;3249;42.690;23.260;2022-08-19T05:29:20;94317.97;;;21.39;100.00
6433;BME280;3249;42.690;23.260;2022-08-19T05:31:47;94318.34;;;21.70;100.00
6433;BME280;3249;42.690;23.260;2022-08-19T05:34:14;94320.16;;;21.93;100.00
6433;BME280;3249;42.690;23.260;2022-08-19T05:36:44;94323.22;;;22.00;100.00
6433;BME280;3249;42.690;23.260;2022-08-19T05:39:12;94324.50;;;21.84;100.00
6433;BME280;3249;42.690;23.260;2022-08-19T05:41:43;94306.00;;;21.75;100.00
6433;BME280;3249;42.690;23.260;2022-08-19T05:44:09;94316.47;;;21.94;100.00
6433;BME280;3249;42.690;23.260;2022-08-19T05:46:36;94318.88;;;21.90;100.00
6433;BME280;3249;42.690;23.260;2022-08-19T05:49:06;94320.59;;;22.00;100.00
6433;BME280;3249;42.690;23.260;2022-08-19T05:51:33;94319.16;;;22.08;100.00
6433;BME280;3249;42.690;23.260;2022-08-19T05:54:04;94323.50;;;21.98;100.00
6433;BME280;3249;42.690;23.260;2022-08-19T05:56:31;94322.50;;;21.94;100.00
6433;BME280;3249;42.690;23.260;2022-08-19T05:58:58;94319.50;;;22.01;100.00
6433;BME280;3249;42.690;23.260;2022-08-19T06:01:25;94321.41;;;22.14;100.00
6433;BME280;3249;42.690;23.260;2022-08-19T06:03:51;94320.19;;;22.25;100.00
6433;BME280;3249;42.690;23.260;2022-08-19T06:06:17;94328.09;;;22.39;100.00
6433;BME280;3249;42.690;23.260;2022-08-19T06:08:43;94317.47;;;22.30;100.00
6433;BME280;3249;42.690;23.260;2022-08-19T06:11:22;94330.72;;;22.39;100.00
6433;BME280;3249;42.690;23.260;2022-08-19T06:13:51;94330.44;;;22.40;100.00
6433;BME280;3249;42.690;23.260;2022-08-19T06:16:21;94317.75;;;22.29;100.00
6433;BME280;3249;42.690;23.260;2022-08-19T06:18:51;94330.22;;;22.55;100.00
6433;BME280;3249;42.690;23.260;2022-08-19T06:21:21;94331.59;;;22.66;100.00
6433;BME280;3249;42.690;23.260;2022-08-19T06:23:47;94333.94;;;22.81;100.00
6433;BME280;3249;42.690;23.260;2022-08-19T06:26:15;94317.91;;;22.83;100.00
6433;BME280;3249;42.690;23.260;2022-08-19T06:28:41;94328.13;;;22.84;100.00
6433;BME280;3249;42.690;23.260;2022-08-19T06:31:10;94333.97;;;23.08;100.00
6433;BME280;3249;42.690;23.260;2022-08-19T06:33:35;94314.50;;;22.82;100.00
6433;BME280;3249;42.690;23.260;2022-08-19T06:36:02;94336.22;;;23.15;100.00
6433;BME280;3249;42.690;23.260;2022-08-19T06:38:28;94326.97;;;23.17;100.00
6433;BME280;3249;42.690;23.260;2022-08-19T06:41:01;94321.91;;;23.07;100.00
6433;BME280;3249;42.690;23.260;2022-08-19T06:43:27;94334.00;;;23.35;100.00
6433;BME280;3249;42.690;23.260;2022-08-19T06:45:52;94328.75;;;23.35;100.00
6433;BME280;3249;42.690;23.260;2022-08-19T06:48:17;94340.22;;;23.39;100.00
6433;BME280;3249;42.690;23.260;2022-08-19T06:50:43;94329.91;;;23.29;100.00
6433;BME280;3249;42.690;23.260;2022-08-19T06:53:09;94338.19;;;23.36;100.00
6433;BME280;3249;42.690;23.260;2022-08-19T06:55:34;94335.75;;;23.26;100.00
6433;BME280;3249;42.690;23.260;2022-08-19T06:58:04;94308.09;;;23.42;100.00
6433;BME280;3249;42.690;23.260;2022-08-19T07:00:32;94318.34;;;23.79;100.00
6433;BME280;3249;42.690;23.260;2022-08-19T07:02:58;94341.59;;;23.99;100.00
6433;BME280;3249;42.690;23.260;2022-08-19T07:05:24;94344.97;;;24.35;100.00
6433;BME280;3249;42.690;23.260;2022-08-19T07:07:49;94344.50;;;24.55;100.00
6433;BME280;3249;42.690;23.260;2022-08-19T07:10:15;94349.03;;;24.41;100.00
6433;BME280;3249;42.690;23.260;2022-08-19T07:12:40;94340.88;;;24.65;100.00
6433;BME280;3249;42.690;23.260;2022-08-19T07:15:07;94356.06;;;24.98;100.00
6433;BME280;3249;42.690;23.260;2022-08-19T07:17:34;94347.69;;;24.96;100.00
6433;BME280;3249;42.690;23.260;2022-08-19T07:20:05;94345.53;;;24.98;100.00
6433;BME280;3249;42.690;23.260;2022-08-19T07:22:33;94344.28;;;25.35;99.39
6433;BME280;3249;42.690;23.260;2022-08-19T07:24:59;94362.44;;;25.36;97.33
6433;BME280;3249;42.690;23.260;2022-08-19T07:27:25;94350.59;;;24.95;100.00
6433;BME280;3249;42.690;23.260;2022-08-19T07:29:51;94349.72;;;24.99;100.00
6433;BME280;3249;42.690;23.260;2022-08-19T07:32:17;94347.78;;;25.22;99.11
6433;BME280;3249;42.690;23.260;2022-08-19T07:34:43;94338.78;;;25.14;100.00
6433;BME280;3249;42.690;23.260;2022-08-19T07:37:08;94349.25;;;25.28;98.26
6433;BME280;3249;42.690;23.260;2022-08-19T07:39:35;94355.34;;;25.45;100.00
6433;BME280;3249;42.690;23.260;2022-08-19T07:42:05;94350.13;;;25.79;96.63
6433;BME280;3249;42.690;23.260;2022-08-19T07:44:32;94351.59;;;26.03;93.88
6433;BME280;3249;42.690;23.260;2022-08-19T07:47:00;94341.97;;;26.15;91.71
6433;BME280;3249;42.690;23.260;2022-08-19T07:49:26;94349.56;;;26.51;89.41
6433;BME280;3249;42.690;23.260;2022-08-19T07:51:57;94364.66;;;26.59;87.92
6433;BME280;3249;42.690;23.260;2022-08-19T07:54:25;94358.72;;;26.70;84.64
6433;BME280;3249;42.690;23.260;2022-08-19T07:56:52;94354.56;;;26.61;82.78
6433;BME280;3249;42.690;23.260;2022-08-19T07:59:18;94355.50;;;26.65;83.49
6433;BME280;3249;42.690;23.260;2022-08-19T08:01:44;94364.72;;;26.88;79.22
6433;BME280;3249;42.690;23.260;2022-08-19T08:04:10;94366.06;;;27.11;76.17
6433;BME280;3249;42.690;23.260;2022-08-19T08:06:54;94357.47;;;27.31;76.73
6433;BME280;3249;42.690;23.260;2022-08-19T08:09:41;94360.38;;;27.46;73.99
6433;BME280;3249;42.690;23.260;2022-08-19T08:12:11;94361.72;;;27.52;72.85
6433;BME280;3249;42.690;23.260;2022-08-19T08:14:41;94364.34;;;27.61;72.66
6433;BME280;3249;42.690;23.260;2022-08-19T08:17:09;94341.22;;;27.03;75.67
6433;BME280;3249;42.690;23.260;2022-08-19T08:19:35;94335.75;;;27.17;76.65
6433;BME280;3249;42.690;23.260;2022-08-19T08:22:02;94352.50;;;27.29;76.71
6433;BME280;3249;42.690;23.260;2022-08-19T08:24:30;94330.00;;;27.23;74.20
6433;BME280;3249;42.690;23.260;2022-08-19T08:27:00;94348.19;;;27.25;73.98
6433;BME280;3249;42.690;23.260;2022-08-19T08:29:30;94344.28;;;27.60;72.37
6433;BME280;3249;42.690;23.260;2022-08-19T08:31:56;94352.09;;;27.77;71.81
6433;BME280;3249;42.690;23.260;2022-08-19T08:34:22;94342.25;;;27.86;69.00
6433;BME280;3249;42.690;23.260;2022-08-19T08:36:47;94331.50;;;28.11;68.88
6433;BME280;3249;42.690;23.260;2022-08-19T08:39:15;94345.81;;;28.31;67.37
6433;BME280;3249;42.690;23.260;2022-08-19T08:41:56;94350.69;;;28.49;66.42
6433;BME280;3249;42.690;23.260;2022-08-19T08:47:04;94338.53;;;28.28;68.31
6433;BME280;3249;42.690;23.260;2022-08-19T08:49:43;94350.16;;;28.56;65.60
6433;BME280;3249;42.690;23.260;2022-08-19T08:52:17;94339.03;;;28.62;64.93
6433;BME280;3249;42.690;23.260;2022-08-19T08:54:46;94340.97;;;28.98;62.81
6433;BME280;3249;42.690;23.260;2022-08-19T08:57:21;94320.94;;;29.09;61.64
6433;BME280;3249;42.690;23.260;2022-08-19T08:59:50;94333.66;;;29.39;59.81
6433;BME280;3249;42.690;23.260;2022-08-19T09:02:19;94341.06;;;29.46;60.78
6433;BME280;3249;42.690;23.260;2022-08-19T09:04:44;94339.25;;;29.14;55.86
6433;BME280;3249;42.690;23.260;2022-08-19T09:10:04;94327.13;;;29.37;55.91
6433;BME280;3249;42.690;23.260;2022-08-19T09:15:13;94332.03;;;29.59;56.63
6433;BME280;3249;42.690;23.260;2022-08-19T09:17:39;94328.66;;;29.86;55.31
6433;BME280;3249;42.690;23.260;2022-08-19T09:20:22;94318.06;;;29.62;55.60
6433;BME280;3249;42.690;23.260;2022-08-19T09:22:48;94325.97;;;29.98;52.55
6433;BME280;3249;42.690;23.260;2022-08-19T09:25:19;94307.38;;;29.98;48.79
6433;BME280;3249;42.690;23.260;2022-08-19T09:27:49;94327.75;;;30.18;47.89
6433;BME280;3249;42.690;23.260;2022-08-19T09:30:27;94321.69;;;30.33;48.60
6433;BME280;3249;42.690;23.260;2022-08-19T09:32:54;94324.28;;;30.30;43.26
6433;BME280;3249;42.690;23.260;2022-08-19T09:35:22;94320.75;;;30.14;46.11
6433;BME280;3249;42.690;23.260;2022-08-19T09:37:48;94316.97;;;30.27;44.46
6433;BME280;3249;42.690;23.260;2022-08-19T09:40:15;94317.09;;;30.30;42.59
6433;BME280;3249;42.690;23.260;2022-08-19T09:42:41;94322.78;;;30.17;42.43
6433;BME280;3249;42.690;23.260;2022-08-19T09:45:09;94318.66;;;30.19;42.79
6433;BME280;3249;42.690;23.260;2022-08-19T09:47:35;94314.69;;;30.01;43.67
6433;BME280;3249;42.690;23.260;2022-08-19T09:50:04;94318.00;;;29.98;42.70
6433;BME280;3249;42.690;23.260;2022-08-19T09:52:30;94316.22;;;30.02;42.90
6433;BME280;3249;42.690;23.260;2022-08-19T09:54:56;94313.44;;;30.23;41.54
6433;BME280;3249;42.690;23.260;2022-08-19T09:57:22;94317.03;;;30.42;40.45
6433;BME280;3249;42.690;23.260;2022-08-19T09:59:47;94313.00;;;30.48;39.67
6433;BME280;3249;42.690;23.260;2022-08-19T10:02:13;94313.16;;;30.67;39.63
6433;BME280;3249;42.690;23.260;2022-08-19T10:04:39;94309.19;;;30.61;37.93
6433;BME280;3249;42.690;23.260;2022-08-19T10:07:23;94305.06;;;30.64;37.23
6433;BME280;3249;42.690;23.260;2022-08-19T10:09:48;94294.16;;;30.53;37.03
6433;BME280;3249;42.690;23.260;2022-08-19T10:12:13;94297.41;;;30.74;35.27
6433;BME280;3249;42.690;23.260;2022-08-19T10:14:40;94300.34;;;30.85;35.52
6433;BME280;3249;42.690;23.260;2022-08-19T10:17:06;94305.47;;;30.93;34.77
6433;BME280;3249;42.690;23.260;2022-08-19T10:19:32;94276.59;;;30.64;36.25
6433;BME280;3249;42.690;23.260;2022-08-19T10:22:03;94300.59;;;30.95;35.04
6433;BME280;3249;42.690;23.260;2022-08-19T10:24:29;94287.63;;;31.09;35.94
6433;BME280;3249;42.690;23.260;2022-08-19T10:26:56;94295.19;;;31.23;35.83
6433;BME280;3249;42.690;23.260;2022-08-19T10:29:22;94278.47;;;31.22;34.47
6433;BME280;3249;42.690;23.260;2022-08-19T10:31:47;94291.09;;;31.25;33.66
6433;BME280;3249;42.690;23.260;2022-08-19T10:34:13;94289.22;;;31.26;32.09
6433;BME280;3249;42.690;23.260;2022-08-19T10:36:38;94291.59;;;31.15;32.29
6433;BME280;3249;42.690;23.260;2022-08-19T10:39:07;94270.59;;;31.26;32.70
6433;BME280;3249;42.690;23.260;2022-08-19T10:41:37;94279.16;;;31.19;32.68
6433;BME280;3249;42.690;23.260;2022-08-19T10:44:06;94284.03;;;31.17;31.64
6433;BME280;3249;42.690;23.260;2022-08-19T10:46:33;94282.06;;;31.30;32.07
6433;BME280;3249;42.690;23.260;2022-08-19T10:49:03;94288.09;;;31.42;31.33
6433;BME280;3249;42.690;23.260;2022-08-19T10:51:30;94278.06;;;31.36;31.88
6433;BME280;3249;42.690;23.260;2022-08-19T10:54:14;94277.06;;;31.59;33.24
6433;BME280;3249;42.690;23.260;2022-08-19T10:56:39;94286.22;;;31.62;32.52
6433;BME280;3249;42.690;23.260;2022-08-19T10:59:20;94278.59;;;31.60;32.97
6433;BME280;3249;42.690;23.260;2022-08-19T11:01:47;94276.47;;;31.50;32.62
6433;BME280;3249;42.690;23.260;2022-08-19T11:04:12;94275.63;;;31.46;33.06
6433;BME280;3249;42.690;23.260;2022-08-19T11:06:40;94285.94;;;31.48;33.22
6433;BME280;3249;42.690;23.260;2022-08-19T11:09:07;94281.75;;;31.66;32.16
6433;BME280;3249;42.690;23.260;2022-08-19T11:11:33;94283.66;;;31.65;32.35
6433;BME280;3249;42.690;23.260;2022-08-19T11:14:05;94268.78;;;31.80;32.11
6433;BME280;3249;42.690;23.260;2022-08-19T11:16:30;94257.09;;;31.69;31.72
6433;BME280;3249;42.690;23.260;2022-08-19T11:18:58;94259.94;;;31.76;32.29
6433;BME280;3249;42.690;23.260;2022-08-19T11:21:27;94268.16;;;31.71;33.08
6433;BME280;3249;42.690;23.260;2022-08-19T11:23:56;94256.81;;;31.89;31.79
6433;BME280;3249;42.690;23.260;2022-08-19T11:26:23;94263.69;;;32.09;32.09
6433;BME280;3249;42.690;23.260;2022-08-19T11:28:49;94256.19;;;31.96;31.79
6433;BME280;3249;42.690;23.260;2022-08-19T11:31:20;94257.41;;;31.83;31.73
6433;BME280;3249;42.690;23.260;2022-08-19T11:33:46;94249.25;;;31.57;34.33
6433;BME280;3249;42.690;23.260;2022-08-19T11:36:12;94242.88;;;31.61;33.55
6433;BME280;3249;42.690;23.260;2022-08-19T11:38:38;94241.38;;;31.79;34.75
6433;BME280;3249;42.690;23.260;2022-08-19T11:41:06;94240.75;;;32.05;33.48
6433;BME280;3249;42.690;23.260;2022-08-19T11:43:36;94246.50;;;32.26;32.35
6433;BME280;3249;42.690;23.260;2022-08-19T11:46:06;94230.66;;;32.33;32.24
6433;BME280;3249;42.690;23.260;2022-08-19T11:48:33;94236.97;;;32.44;32.70
6433;BME280;3249;42.690;23.260;2022-08-19T11:50:58;94238.13;;;32.65;33.19
6433;BME280;3249;42.690;23.260;2022-08-19T11:53:24;94240.97;;;32.76;31.53
6433;BME280;3249;42.690;23.260;2022-08-19T11:55:52;94235.44;;;32.84;32.53
6433;BME280;3249;42.690;23.260;2022-08-19T11:58:21;94240.47;;;32.89;30.95
6433;BME280;3249;42.690;23.260;2022-08-19T12:00:47;94234.41;;;32.92;31.36
6433;BME280;3249;42.690;23.260;2022-08-19T12:03:12;94223.16;;;33.06;32.67
6433;BME280;3249;42.690;23.260;2022-08-19T12:05:39;94218.22;;;33.04;31.53
6433;BME280;3249;42.690;23.260;2022-08-19T12:08:05;94227.25;;;33.22;31.96
6433;BME280;3249;42.690;23.260;2022-08-19T12:10:31;94217.94;;;33.13;30.66
6433;BME280;3249;42.690;23.260;2022-08-19T12:12:57;94215.63;;;33.11;31.46
6433;BME280;3249;42.690;23.260;2022-08-19T12:15:23;94213.78;;;33.15;31.10
6433;BME280;3249;42.690;23.260;2022-08-19T12:17:48;94204.06;;;33.00;31.53
6433;BME280;3249;42.690;23.260;2022-08-19T12:20:14;94206.22;;;33.17;31.52
6433;BME280;3249;42.690;23.260;2022-08-19T12:22:42;94187.91;;;33.19;31.70
6433;BME280;3249;42.690;23.260;2022-08-19T12:25:10;94209.16;;;33.35;30.73
6433;BME280;3249;42.690;23.260;2022-08-19T12:27:36;94195.69;;;33.28;30.37
6433;BME280;3249;42.690;23.260;2022-08-19T12:30:07;94202.78;;;33.43;30.55
6433;BME280;3249;42.690;23.260;2022-08-19T12:32:33;94202.38;;;33.41;30.47
6433;BME280;3249;42.690;23.260;2022-08-19T12:34:58;94199.19;;;33.32;29.93
6433;BME280;3249;42.690;23.260;2022-08-19T12:37:24;94189.09;;;33.22;30.37
6433;BME280;3249;42.690;23.260;2022-08-19T12:39:49;94190.94;;;33.18;30.22
6433;BME280;3249;42.690;23.260;2022-08-19T12:42:15;94192.72;;;33.07;30.13
6433;BME280;3249;42.690;23.260;2022-08-19T12:44:42;94179.63;;;32.98;30.29
6433;BME280;3249;42.690;23.260;2022-08-19T12:47:11;94183.16;;;33.06;30.81
6433;BME280;3249;42.690;23.260;2022-08-19T12:49:37;94162.53;;;33.03;30.73
6433;BME280;3249;42.690;23.260;2022-08-19T12:52:07;94185.72;;;33.25;31.84
6433;BME280;3249;42.690;23.260;2022-08-19T12:54:34;94183.19;;;33.32;30.91
6433;BME280;3249;42.690;23.260;2022-08-19T12:57:00;94170.69;;;33.40;31.22
6433;BME280;3249;42.690;23.260;2022-08-19T12:59:29;94173.06;;;33.45;30.46
6433;BME280;3249;42.690;23.260;2022-08-19T13:01:54;94162.16;;;33.57;31.05
6433;BME280;3249;42.690;23.260;2022-08-19T13:04:20;94171.84;;;33.68;30.90
6433;BME280;3249;42.690;23.260;2022-08-19T13:06:45;94177.38;;;33.82;29.91
6433;BME280;3249;42.690;23.260;2022-08-19T13:09:11;94150.50;;;33.72;30.35
6433;BME280;3249;42.690;23.260;2022-08-19T13:11:37;94163.72;;;33.91;30.71
6433;BME280;3249;42.690;23.260;2022-08-19T13:14:03;94161.69;;;33.81;30.12
6433;BME280;3249;42.690;23.260;2022-08-19T13:16:29;94161.28;;;33.49;29.48
6433;BME280;3249;42.690;23.260;2022-08-19T13:18:56;94156.41;;;33.28;31.14
6433;BME280;3249;42.690;23.260;2022-08-19T13:21:25;94161.91;;;33.13;30.60
6433;BME280;3249;42.690;23.260;2022-08-19T13:23:51;94152.63;;;33.29;30.54
6433;BME280;3249;42.690;23.260;2022-08-19T13:26:18;94147.47;;;33.44;29.63
6433;BME280;3249;42.690;23.260;2022-08-19T13:28:44;94157.94;;;33.56;29.96
6433;BME280;3249;42.690;23.260;2022-08-19T13:31:45;94151.78;;;33.52;31.11
6433;BME280;3249;42.690;23.260;2022-08-19T13:34:32;94133.00;;;33.18;31.62
6433;BME280;3249;42.690;23.260;2022-08-19T13:36:59;94146.81;;;33.24;30.29
6433;BME280;3249;42.690;23.260;2022-08-19T13:39:28;94149.88;;;32.96;30.37
6433;BME280;3249;42.690;23.260;2022-08-19T13:41:54;94130.09;;;33.27;30.23
6433;BME280;3249;42.690;23.260;2022-08-19T13:44:20;94127.16;;;33.36;30.77
6433;BME280;3249;42.690;23.260;2022-08-19T13:46:47;94138.19;;;33.64;30.89
6433;BME280;3249;42.690;23.260;2022-08-19T13:49:15;94142.88;;;33.41;29.62
6433;BME280;3249;42.690;23.260;2022-08-19T13:51:41;94127.72;;;33.48;29.74
6433;BME280;3249;42.690;23.260;2022-08-19T13:54:09;94135.03;;;33.55;29.29
6433;BME280;3249;42.690;23.260;2022-08-19T13:56:35;94118.84;;;33.41;29.18
6433;BME280;3249;42.690;23.260;2022-08-19T13:59:04;94128.47;;;33.19;30.99
6433;BME280;3249;42.690;23.260;2022-08-19T14:01:30;94128.56;;;33.00;30.48
6433;BME280;3249;42.690;23.260;2022-08-19T14:03:55;94129.84;;;33.09;31.07
6433;BME280;3249;42.690;23.260;2022-08-19T14:06:21;94132.25;;;33.44;30.36
6433;BME280;3249;42.690;23.260;2022-08-19T14:08:47;94128.16;;;33.54;29.20
6433;BME280;3249;42.690;23.260;2022-08-19T14:11:13;94121.78;;;33.62;29.83
6433;BME280;3249;42.690;23.260;2022-08-19T14:13:39;94126.53;;;33.46;30.73
6433;BME280;3249;42.690;23.260;2022-08-19T14:16:12;94121.72;;;33.28;30.32
6433;BME280;3249;42.690;23.260;2022-08-19T14:18:38;94113.50;;;33.14;32.29
6433;BME280;3249;42.690;23.260;2022-08-19T14:21:05;94122.03;;;33.53;31.63
6433;BME280;3249;42.690;23.260;2022-08-19T14:23:32;94122.41;;;33.52;30.29
6433;BME280;3249;42.690;23.260;2022-08-19T14:26:09;94116.44;;;33.32;31.51
6433;BME280;3249;42.690;23.260;2022-08-19T14:28:36;94093.97;;;33.07;30.66
6433;BME280;3249;42.690;23.260;2022-08-19T14:31:02;94120.44;;;33.19;29.86
6433;BME280;3249;42.690;23.260;2022-08-19T14:33:27;94111.13;;;33.36;31.17
6433;BME280;3249;42.690;23.260;2022-08-19T14:35:53;94116.81;;;33.64;29.82
6433;BME280;3249;42.690;23.260;2022-08-19T14:38:19;94099.56;;;33.54;30.07
6433;BME280;3249;42.690;23.260;2022-08-19T14:40:45;94110.34;;;33.94;29.75
6433;BME280;3249;42.690;23.260;2022-08-19T14:43:11;94110.91;;;34.14;29.17
6433;BME280;3249;42.690;23.260;2022-08-19T14:45:37;94110.75;;;34.33;29.57
6433;BME280;3249;42.690;23.260;2022-08-19T14:48:04;94100.91;;;34.44;28.98
6433;BME280;3249;42.690;23.260;2022-08-19T14:50:30;94107.38;;;34.43;30.78
6433;BME280;3249;42.690;23.260;2022-08-19T14:53:04;94114.03;;;34.63;28.75
6433;BME280;3249;42.690;23.260;2022-08-19T14:55:31;94111.50;;;34.33;28.58
6433;BME280;3249;42.690;23.260;2022-08-19T14:57:57;94116.53;;;34.02;29.39
6433;BME280;3249;42.690;23.260;2022-08-19T15:00:24;94105.28;;;34.22;30.35
6433;BME280;3249;42.690;23.260;2022-08-19T15:02:50;94110.56;;;34.59;28.94
6433;BME280;3249;42.690;23.260;2022-08-19T15:05:16;94108.13;;;34.87;27.64
6433;BME280;3249;42.690;23.260;2022-08-19T15:07:42;94110.06;;;34.90;27.11
6433;BME280;3249;42.690;23.260;2022-08-19T15:10:09;94114.00;;;35.10;28.10
6433;BME280;3249;42.690;23.260;2022-08-19T15:12:36;94097.22;;;34.62;29.96
6433;BME280;3249;42.690;23.260;2022-08-19T15:15:06;94101.81;;;34.62;29.61
6433;BME280;3249;42.690;23.260;2022-08-19T15:17:32;94108.53;;;34.42;30.24
6433;BME280;3249;42.690;23.260;2022-08-19T15:19:58;94104.09;;;34.63;29.45
6433;BME280;3249;42.690;23.260;2022-08-19T15:22:23;94089.00;;;34.85;28.52
6433;BME280;3249;42.690;23.260;2022-08-19T15:24:49;94109.75;;;35.02;28.07
6433;BME280;3249;42.690;23.260;2022-08-19T15:27:14;94102.94;;;34.61;29.83
6433;BME280;3249;42.690;23.260;2022-08-19T15:29:40;94072.31;;;34.55;30.16
6433;BME280;3249;42.690;23.260;2022-08-19T15:32:07;94099.28;;;34.83;29.17
6433;BME280;3249;42.690;23.260;2022-08-19T15:34:33;94103.66;;;35.05;30.87
6433;BME280;3249;42.690;23.260;2022-08-19T15:37:00;94093.97;;;35.51;30.29
6433;BME280;3249;42.690;23.260;2022-08-19T15:39:25;94096.44;;;35.91;29.49
6433;BME280;3249;42.690;23.260;2022-08-19T15:41:51;94096.78;;;35.86;30.37
6433;BME280;3249;42.690;23.260;2022-08-19T15:44:18;94100.63;;;35.95;29.55
6433;BME280;3249;42.690;23.260;2022-08-19T15:46:46;94111.75;;;35.87;28.57
6433;BME280;3249;42.690;23.260;2022-08-19T15:49:13;94097.84;;;35.67;28.81
6433;BME280;3249;42.690;23.260;2022-08-19T15:51:41;94094.31;;;35.46;29.24
6433;BME280;3249;42.690;23.260;2022-08-19T15:54:11;94096.97;;;35.35;28.68
6433;BME280;3249;42.690;23.260;2022-08-19T15:56:37;94096.09;;;35.21;28.74
6433;BME280;3249;42.690;23.260;2022-08-19T15:59:21;94084.44;;;34.89;30.39
6433;BME280;3249;42.690;23.260;2022-08-19T16:02:05;94095.34;;;35.24;30.86
6433;BME280;3249;42.690;23.260;2022-08-19T16:04:51;94099.41;;;34.97;29.42
6433;BME280;3249;42.690;23.260;2022-08-19T16:07:35;94101.22;;;34.82;29.80
6433;BME280;3249;42.690;23.260;2022-08-19T16:10:00;94099.41;;;34.50;30.84
6433;BME280;3249;42.690;23.260;2022-08-19T16:12:26;94096.88;;;34.71;31.18
6433;BME280;3249;42.690;23.260;2022-08-19T16:14:53;94088.91;;;34.78;31.84
6433;BME280;3249;42.690;23.260;2022-08-19T16:17:18;94090.00;;;34.70;31.05
6433;BME280;3249;42.690;23.260;2022-08-19T16:19:44;94101.88;;;34.72;30.79
6433;BME280;3249;42.690;23.260;2022-08-19T16:22:09;94100.28;;;34.61;30.68
6433;BME280;3249;42.690;23.260;2022-08-19T16:24:35;94095.56;;;34.44;31.63